Terminal Aerodrome Forecast
Issued by NWS Corpus Christi, TX

Home | Current Version | Previous Version | Text Only | Print | Product List | Glossary On
Versions: 1 2 3 4 5 6 7 8 9 10 11 12 13 14 15 16
000
FTUS44 KCRP 051130
TAFCRP
TAF
KCRP 051130Z 0512/0612 14010KT P6SM SCT018
     FM051400 16012KT P6SM SCT025
     FM051600 14015G22KT P6SM SCT050
     FM060100 15008KT P6SM FEW035
     FM060900 14005KT P6SM FEW025
      TEMPO 0610/0612 BKN025=

USA.gov is the U.S. government's official web portal to all federal, state and local government web resources and services.